Time;durP1;ratioP1;P1;durP2;ratioP2;P2;SDS_P1;SDS_P2;PMS_P1;PMS_P2;Temp;Humidity;BMP_temperature;BMP_pressure;BME280_temperature;BME280_humidity;BME280_pressure;Samples;Min_cycle;Max_cycle;Signal;HPM_P1;HPM_P2
2021/12/17 00:05:44;;;;;;;17.02;9.83;;;;;;;4.68;100.00;99967.36;2174978;82;21069;-82
2021/12/17 00:08:31;;;;;;;14.90;8.75;;;;;;;4.73;100.00;99985.17;2171601;82;21005;-82
2021/12/17 00:11:32;;;;;;;16.52;9.50;;;;;;;4.74;100.00;99988.13;2175072;82;20942;-82
2021/12/17 00:14:37;;;;;;;18.82;8.70;;;;;;;4.73;100.00;99992.96;2175238;82;21111;-81
2021/12/17 00:17:39;;;;;;;18.27;9.18;;;;;;;4.72;100.00;99997.32;2174832;82;21005;-81
2021/12/17 00:44:08;;;;;;;19.82;10.23;;;;;;;4.63;100.00;100014.02;2175291;82;21109;-81
2021/12/17 00:50:22;;;;;;;15.25;9.15;;;;;;;4.65;100.00;100014.73;2175326;82;21048;-81
2021/12/17 00:53:07;;;;;;;20.52;10.90;;;;;;;4.62;100.00;100013.67;2171330;82;21076;-81
2021/12/17 00:56:08;;;;;;;15.38;10.18;;;;;;;4.58;100.00;100009.66;2175325;82;21018;-81
2021/12/17 00:59:09;;;;;;;18.37;10.35;;;;;;;4.55;100.00;99993.34;2175360;82;21536;-82
2021/12/17 01:02:10;;;;;;;18.45;10.05;;;;;;;4.55;100.00;99993.34;2175368;82;20922;-82
2021/12/17 01:05:10;;;;;;;22.98;10.58;;;;;;;4.55;100.00;99995.94;2175286;82;20989;-82
2021/12/17 01:08:11;;;;;;;23.38;9.48;;;;;;;4.55;100.00;100001.59;2175262;82;21044;-82
2021/12/17 01:11:12;;;;;;;19.70;11.57;;;;;;;4.53;100.00;100000.41;2175441;82;21481;-81
2021/12/17 01:14:13;;;;;;;20.68;9.38;;;;;;;4.50;100.00;99995.45;2175592;82;21097;-82
2021/12/17 01:17:14;;;;;;;18.07;10.40;;;;;;;4.50;100.00;100008.90;2175237;80;21021;-82
2021/12/17 01:36:38;;;;;;;24.63;10.60;;;;;;;4.47;100.00;100014.28;2175081;82;21032;-80
2021/12/17 01:42:39;;;;;;;18.27;8.40;;;;;;;4.37;100.00;100032.73;2175118;82;21053;-81
2021/12/17 01:45:41;;;;;;;16.55;7.72;;;;;;;4.32;100.00;100018.80;2175171;82;21053;-81
2021/12/17 01:49:00;;;;;;;18.50;7.00;;;;;;;4.27;100.00;100037.27;2175285;82;21080;-81
2021/12/17 02:01:51;;;;;;;14.23;5.60;;;;;;;4.19;100.00;100030.95;2175472;82;21017;-80
2021/12/17 02:04:52;;;;;;;12.23;5.95;;;;;;;4.14;100.00;100033.87;2176779;82;20954;-82
2021/12/17 02:07:56;;;;;;;12.43;5.20;;;;;;;4.13;100.00;100030.94;2178249;82;21044;-81
2021/12/17 02:33:40;;;;;;;12.35;4.20;;;;;;;4.04;100.00;100030.73;2132189;83;21085;-81
2021/12/17 02:36:40;;;;;;;17.70;4.75;;;;;;;4.07;100.00;100026.16;2132337;83;21581;-81
2021/12/17 02:46:01;;;;;;;18.82;4.80;;;;;;;4.05;100.00;100010.36;2131944;83;21072;-81
2021/12/17 02:49:02;;;;;;;12.70;5.47;;;;;;;4.05;100.00;100004.71;2132412;83;21608;-81
2021/12/17 02:52:03;;;;;;;17.73;6.12;;;;;;;4.06;100.00;99999.05;2132201;83;21036;-81
2021/12/17 02:55:05;;;;;;;14.35;5.08;;;;;;;4.07;100.00;99996.82;2132424;83;21037;-81
2021/12/17 02:58:05;;;;;;;12.98;5.30;;;;;;;4.11;100.00;99998.25;2132167;83;21059;-81
2021/12/17 03:01:06;;;;;;;12.33;4.05;;;;;;;4.11;100.00;100006.03;2145047;82;20997;-81
2021/12/17 03:04:07;;;;;;;14.03;4.42;;;;;;;4.11;100.00;100005.56;2163725;82;21080;-81
2021/12/17 03:07:08;;;;;;;12.15;3.22;;;;;;;4.13;100.00;99998.53;2163665;82;20966;-81
2021/12/17 03:10:11;;;;;;;13.60;4.05;;;;;;;4.14;100.00;99988.98;2163926;82;21038;-81
2021/12/17 03:13:11;;;;;;;13.48;4.17;;;;;;;4.14;100.00;99995.47;2163619;82;21097;-81
2021/12/17 03:16:31;;;;;;;10.72;4.10;;;;;;;4.16;100.00;99984.52;2165770;82;21081;-81
2021/12/17 03:26:05;;;;;;;15.70;5.62;;;;;;;4.14;100.00;99980.73;2175173;82;21088;-81
2021/12/17 03:29:06;;;;;;;11.68;4.25;;;;;;;4.10;100.00;99988.82;2175222;82;21501;-81
2021/12/17 03:32:07;;;;;;;11.03;4.42;;;;;;;4.07;100.00;99987.28;2175156;82;21055;-81
2021/12/17 03:35:08;;;;;;;14.38;4.35;;;;;;;4.05;100.00;99994.81;2175185;82;20993;-81
2021/12/17 03:38:09;;;;;;;13.50;5.25;;;;;;;4.02;100.00;99993.23;2175184;82;21025;-80
2021/12/17 03:41:22;;;;;;;18.42;4.83;;;;;;;4.04;100.00;99984.91;2175219;82;21461;-81
2021/12/17 03:44:21;;;;;;;15.60;5.30;;;;;;;4.02;100.00;99991.12;2174791;82;21120;-81
2021/12/17 03:47:22;;;;;;;14.05;4.65;;;;;;;4.03;100.00;99981.14;2175340;82;21504;-80
2021/12/17 03:50:23;;;;;;;20.43;6.28;;;;;;;4.02;100.00;99982.05;2175196;82;21069;-80
2021/12/17 03:53:24;;;;;;;19.27;6.25;;;;;;;4.05;100.00;99987.03;2175132;82;21464;-80
2021/12/17 03:56:25;;;;;;;19.80;7.17;;;;;;;4.05;100.00;99977.50;2175217;82;21084;-80
2021/12/17 03:59:26;;;;;;;15.88;5.55;;;;;;;4.04;100.00;99982.32;2175281;82;21500;-81
2021/12/17 04:02:26;;;;;;;15.30;4.33;;;;;;;4.02;100.00;99968.62;2175837;82;20985;-82
2021/12/17 04:05:27;;;;;;;21.27;7.00;;;;;;;4.00;100.00;99976.50;2176167;82;21075;-81
2021/12/17 04:08:28;;;;;;;17.25;5.42;;;;;;;4.00;100.00;99972.62;2176051;82;21032;-82
2021/12/17 04:11:30;;;;;;;23.85;7.05;;;;;;;3.99;100.00;99955.41;2176075;82;21012;-82
2021/12/17 04:14:45;;;;;;;19.10;6.45;;;;;;;4.03;100.00;99951.33;2175725;82;21504;-81
2021/12/17 04:17:53;;;;;;;13.43;5.35;;;;;;;4.03;100.00;99957.81;2174932;81;21087;-81
2021/12/17 04:20:48;;;;;;;14.00;4.90;;;;;;;4.04;100.00;99941.32;2173794;82;20962;-83
2021/12/17 04:23:49;;;;;;;11.28;4.35;;;;;;;4.03;100.00;99949.56;2175548;82;20997;-82
2021/12/17 04:26:50;;;;;;;17.25;5.12;;;;;;;4.00;100.00;99948.47;2175421;82;21072;-82
2021/12/17 04:29:51;;;;;;;16.23;4.92;;;;;;;4.00;100.00;99940.22;2175579;82;20989;-82
2021/12/17 04:32:53;;;;;;;17.70;4.97;;;;;;;4.00;100.00;99942.81;2175268;82;21042;-82
2021/12/17 04:35:54;;;;;;;9.58;4.37;;;;;;;4.03;100.00;99950.03;2175484;82;21014;-82
2021/12/17 04:38:57;;;;;;;12.82;5.12;;;;;;;4.03;100.00;99944.38;2176217;82;20982;-82
2021/12/17 04:42:03;;;;;;;12.30;6.12;;;;;;;4.04;100.00;99942.14;2178076;82;20961;-82
2021/12/17 04:45:01;;;;;;;12.37;4.42;;;;;;;4.05;100.00;99933.43;2174873;82;21081;-83
2021/12/17 04:58:00;;;;;;;17.07;7.15;;;;;;;4.03;100.00;99935.78;2176371;82;21025;-81
2021/12/17 05:01:03;;;;;;;12.07;6.47;;;;;;;4.03;100.00;99942.26;2178530;82;21005;-82
2021/12/17 05:04:04;;;;;;;17.45;7.33;;;;;;;4.04;100.00;99943.45;2175367;82;20962;-82
2021/12/17 05:07:07;;;;;;;22.62;6.78;;;;;;;4.05;100.00;99941.68;2175297;82;21515;-82
2021/12/17 05:19:54;;;;;;;17.52;7.30;;;;;;;3.94;100.00;99930.30;2175239;82;21005;-82
2021/12/17 05:22:58;;;;;;;23.52;8.73;;;;;;;3.92;100.00;99950.77;2175313;82;21088;-82
2021/12/17 05:25:57;;;;;;;19.60;7.35;;;;;;;3.93;100.00;99943.34;2175461;82;21096;-81
2021/12/17 05:28:58;;;;;;;14.98;5.83;;;;;;;3.92;100.00;99943.81;2175297;82;20983;-82
2021/12/17 05:31:59;;;;;;;16.17;4.90;;;;;;;3.91;100.00;99955.12;2175266;82;21045;-82
2021/12/17 05:35:00;;;;;;;18.30;5.80;;;;;;;3.91;100.00;99955.12;2175247;82;21057;-82
2021/12/17 05:38:01;;;;;;;11.43;4.78;;;;;;;3.89;100.00;99947.92;2175297;82;21488;-82
2021/12/17 05:41:02;;;;;;;13.48;5.22;;;;;;;3.90;100.00;99946.16;2174740;82;21009;-82
2021/12/17 05:44:03;;;;;;;13.03;4.92;;;;;;;3.87;100.00;99945.09;2175175;82;21551;-82
2021/12/17 05:47:04;;;;;;;12.23;4.95;;;;;;;3.85;100.00;99943.08;2175234;82;20976;-81
2021/12/17 05:50:05;;;;;;;16.55;6.55;;;;;;;3.86;100.00;99955.09;2175599;82;20980;-82
2021/12/17 05:53:06;;;;;;;18.05;7.25;;;;;;;3.86;100.00;99961.58;2175181;82;20977;-82
2021/12/17 05:56:06;;;;;;;18.23;7.05;;;;;;;3.85;100.00;99960.75;2175120;82;20966;-81
2021/12/17 05:59:07;;;;;;;19.30;8.55;;;;;;;3.83;100.00;99959.17;2175278;82;21033;-81
2021/12/17 06:02:11;;;;;;;19.77;7.53;;;;;;;3.80;100.00;99963.28;2175422;82;20954;-82
2021/12/17 06:05:11;;;;;;;18.70;6.97;;;;;;;3.80;100.00;99961.98;2175021;82;21049;-80
2021/12/17 06:08:12;;;;;;;15.43;6.50;;;;;;;3.78;100.00;99966.45;2175339;82;21085;-81
2021/12/17 06:11:12;;;;;;;13.65;7.00;;;;;;;3.73;100.00;99960.28;2175414;82;21001;-82
2021/12/17 06:14:13;;;;;;;12.40;6.00;;;;;;;3.74;100.00;99977.48;2175245;82;21016;-82
2021/12/17 06:17:14;;;;;;;13.95;5.00;;;;;;;3.72;100.00;99978.05;2172437;81;21018;-82
2021/12/17 06:20:16;;;;;;;18.92;5.95;;;;;;;3.73;100.00;99978.41;2163368;82;21050;-82
2021/12/17 06:23:17;;;;;;;16.10;5.50;;;;;;;3.71;100.00;99982.41;2163689;82;21048;-82
2021/12/17 06:26:17;;;;;;;15.30;6.17;;;;;;;3.70;100.00;99980.76;2163807;82;21017;-82
2021/12/17 06:29:18;;;;;;;17.55;5.78;;;;;;;3.72;100.00;99978.05;2163720;82;21002;-82
2021/12/17 06:32:19;;;;;;;16.25;5.15;;;;;;;3.70;100.00;99983.81;2163911;82;21009;-82
2021/12/17 06:35:20;;;;;;;17.25;5.65;;;;;;;3.72;100.00;99983.23;2163751;82;20934;-82
2021/12/17 06:38:21;;;;;;;24.00;6.08;;;;;;;3.70;100.00;99982.05;2163867;82;21006;-80
2021/12/17 06:41:22;;;;;;;15.90;6.30;;;;;;;3.68;100.00;99978.75;2163825;82;20971;-80
2021/12/17 06:44:25;;;;;;;15.98;5.17;;;;;;;3.67;100.00;99983.56;2163772;82;21001;-80
2021/12/17 06:47:29;;;;;;;16.82;6.42;;;;;;;3.65;100.00;99981.52;2163602;82;21418;-80
2021/12/17 07:00:45;;;;;;;16.15;4.97;;;;;;;3.61;100.00;99963.72;2163878;82;21560;-80
2021/12/17 07:07:40;;;;;;;14.10;5.10;;;;;;;3.61;100.00;99966.31;2163468;82;21129;-80
2021/12/17 07:20:43;;;;;;;13.62;5.30;;;;;;;3.67;100.00;99962.84;2186489;81;21073;-81
2021/12/17 07:23:09;;;;;;;16.62;5.95;;;;;;;3.66;100.00;99959.89;2182327;81;20992;-81
2021/12/17 07:32:47;;;;;;;14.43;4.90;;;;;;;3.58;100.00;99950.52;2186656;81;21111;-80
2021/12/17 07:35:53;;;;;;;10.90;5.27;;;;;;;3.60;100.00;99964.19;2188811;81;20993;-80
2021/12/17 07:38:51;;;;;;;17.20;5.60;;;;;;;3.65;100.00;99961.27;2184634;81;21072;-80
2021/12/17 07:41:49;;;;;;;10.70;5.12;;;;;;;3.70;100.00;99960.03;2185182;81;21028;-80
2021/12/17 07:44:50;;;;;;;14.33;5.67;;;;;;;3.75;100.00;99966.20;2186432;81;20961;-80
2021/12/17 07:47:51;;;;;;;11.80;4.58;;;;;;;3.78;100.00;99971.16;2186413;81;21057;-80
2021/12/17 07:50:52;;;;;;;12.07;4.70;;;;;;;3.80;100.00;99979.66;2186455;81;20997;-80
2021/12/17 07:53:54;;;;;;;13.68;5.40;;;;;;;3.81;100.00;99978.72;2186175;81;21323;-83
2021/12/17 07:56:55;;;;;;;15.55;6.12;;;;;;;3.81;100.00;99973.53;2186145;81;21068;-83
2021/12/17 07:59:56;;;;;;;15.05;6.37;;;;;;;3.84;100.00;99983.71;2186477;81;21020;-84
2021/12/17 08:02:57;;;;;;;16.32;6.42;;;;;;;3.89;100.00;99982.91;2186291;81;21020;-79
2021/12/17 08:05:57;;;;;;;17.23;6.00;;;;;;;3.93;100.00;99984.37;2186266;81;21008;-81
2021/12/17 08:08:59;;;;;;;11.12;5.22;;;;;;;3.96;100.00;99993.22;2186949;81;21495;-81
2021/12/17 08:12:00;;;;;;;14.35;5.75;;;;;;;4.02;100.00;99987.23;2186356;81;21414;-80
2021/12/17 08:15:01;;;;;;;16.90;7.20;;;;;;;4.03;100.00;99994.09;2186428;81;20965;-80
2021/12/17 08:24:47;;;;;;;12.80;6.75;;;;;;;4.14;100.00;99992.87;2175337;82;21005;-82
2021/12/17 08:30:42;;;;;;;14.93;8.15;;;;;;;4.17;100.00;100012.92;2175478;82;20976;-82
2021/12/17 08:33:43;;;;;;;12.93;6.58;;;;;;;4.21;100.00;100018.27;2175309;82;20997;-79
2021/12/17 08:36:44;;;;;;;21.95;8.78;;;;;;;4.24;100.00;100019.81;2175421;82;21508;-81
2021/12/17 08:39:45;;;;;;;16.55;8.70;;;;;;;4.21;100.00;100026.52;2175498;82;21523;-79
2021/12/17 08:42:46;;;;;;;20.32;8.05;;;;;;;4.18;100.00;100031.42;2175351;82;21028;-82
2021/12/17 08:45:47;;;;;;;13.62;6.22;;;;;;;4.18;100.00;100031.42;2175288;82;21539;-87
2021/12/17 08:48:48;;;;;;;20.48;6.62;;;;;;;4.18;100.00;100039.67;2175464;82;20926;-81
2021/12/17 08:51:49;;;;;;;23.73;8.38;;;;;;;4.20;100.00;100041.68;2175427;82;20993;-81
2021/12/17 08:54:50;;;;;;;21.02;8.35;;;;;;;4.20;100.00;100033.91;2175343;82;21009;-80
2021/12/17 08:57:51;;;;;;;21.82;7.22;;;;;;;4.19;100.00;100040.03;2175542;82;20965;-80
2021/12/17 09:00:52;;;;;;;16.00;6.97;;;;;;;4.19;100.00;100038.27;2175476;82;21001;-79
2021/12/17 09:03:53;;;;;;;15.10;6.05;;;;;;;4.19;100.00;100011.51;2175417;82;21031;-79
2021/12/17 09:06:54;;;;;;;13.08;6.72;;;;;;;4.22;100.00;100020.39;2175205;82;21041;-81
2021/12/17 09:09:55;;;;;;;14.83;6.62;;;;;;;4.22;100.00;100021.69;2175370;82;21009;-80
2021/12/17 09:12:56;;;;;;;13.28;4.65;;;;;;;4.28;100.00;100018.64;2175349;82;20941;-81
2021/12/17 09:15:57;;;;;;;12.30;5.70;;;;;;;4.32;100.00;100014.91;2175385;82;21047;-80
2021/12/17 09:18:58;;;;;;;14.90;5.92;;;;;;;4.29;100.00;100012.05;2175332;82;21033;-83
2021/12/17 09:22:00;;;;;;;13.18;5.62;;;;;;;4.31;100.00;100025.41;2175331;82;21052;-81
2021/12/17 09:25:01;;;;;;;16.12;5.92;;;;;;;4.25;100.00;100014.51;2175236;82;20985;-82
2021/12/17 09:28:04;;;;;;;24.57;7.28;;;;;;;4.23;100.00;100018.16;2175069;82;21029;-81
2021/12/17 09:31:05;;;;;;;17.32;5.53;;;;;;;4.25;100.00;100018.87;2175367;82;21635;-83
2021/12/17 09:34:06;;;;;;;20.55;6.80;;;;;;;4.26;100.00;100019.23;2175369;82;21080;-83
2021/12/17 09:37:07;;;;;;;15.58;6.03;;;;;;;4.29;100.00;100020.30;2175199;82;20981;-81
2021/12/17 09:40:08;;;;;;;11.83;5.65;;;;;;;4.29;100.00;100006.03;2175380;82;20953;-83
2021/12/17 09:43:10;;;;;;;14.85;5.87;;;;;;;4.31;100.00;100008.08;2175462;82;21004;-84
2021/12/17 09:46:11;;;;;;;17.55;6.00;;;;;;;4.31;100.00;100011.14;2175870;82;21577;-83
2021/12/17 09:49:12;;;;;;;16.93;5.75;;;;;;;4.26;100.00;100016.16;2147597;82;20922;-79
2021/12/17 09:52:13;;;;;;;11.43;6.05;;;;;;;4.25;100.00;100025.34;2178522;82;20985;-83
2021/12/17 09:55:14;;;;;;;12.07;5.50;;;;;;;4.25;100.00;100013.22;2176713;82;20918;-79
2021/12/17 09:58:15;;;;;;;15.90;4.95;;;;;;;4.29;100.00;100013.34;2175086;82;20969;-83
2021/12/17 10:01:17;;;;;;;13.95;5.95;;;;;;;4.25;100.00;100005.44;2175327;82;21516;-83
2021/12/17 10:04:21;;;;;;;16.37;6.58;;;;;;;4.22;100.00;99995.29;2175114;82;20961;-81
2021/12/17 10:07:22;;;;;;;14.33;6.53;;;;;;;4.26;100.00;99987.64;2176077;82;20938;-81
2021/12/17 10:10:24;;;;;;;16.80;6.50;;;;;;;4.33;100.00;99980.73;2178969;82;21042;-78
2021/12/17 10:13:25;;;;;;;16.02;6.78;;;;;;;4.34;100.00;99970.72;2176138;82;20997;-82
2021/12/17 10:16:26;;;;;;;15.50;6.40;;;;;;;4.42;100.00;99980.91;2175146;82;21504;-81
2021/12/17 10:19:27;;;;;;;16.45;7.35;;;;;;;4.48;100.00;99975.30;2167921;80;21604;-79
2021/12/17 10:22:30;;;;;;;14.63;6.72;;;;;;;4.52;100.00;99976.71;2163511;82;20962;-81
2021/12/17 10:25:31;;;;;;;16.70;7.30;;;;;;;4.58;100.00;99974.16;2163579;82;21085;-82
2021/12/17 10:28:32;;;;;;;20.08;7.45;;;;;;;4.69;100.00;99969.02;2163660;82;20974;-81
2021/12/17 10:31:33;;;;;;;19.85;7.85;;;;;;;4.73;100.00;99961.82;2163629;82;21128;-81
2021/12/17 10:34:34;;;;;;;19.07;6.40;;;;;;;4.73;100.00;99968.31;2163606;82;20942;-81
2021/12/17 10:37:36;;;;;;;24.52;7.65;;;;;;;4.74;100.00;99980.34;2163700;82;21028;-81
2021/12/17 10:40:39;;;;;;;14.75;6.92;;;;;;;4.75;100.00;99971.14;2163578;82;20977;-82
2021/12/17 10:43:44;;;;;;;16.62;7.90;;;;;;;4.76;100.00;99968.11;2163573;82;21505;-82
2021/12/17 10:46:57;;;;;;;10.88;5.08;;;;;;;4.80;100.00;99969.05;2163664;82;21391;-82
2021/12/17 10:49:46;;;;;;;13.35;5.05;;;;;;;4.76;100.00;99969.41;2163426;82;21046;-81
2021/12/17 10:52:55;;;;;;;14.43;5.67;;;;;;;4.78;100.00;99974.00;2163731;82;21059;-82
2021/12/17 10:55:50;;;;;;;28.38;9.10;;;;;;;4.79;100.00;99958.79;2163442;82;21021;-80
2021/12/17 10:58:51;;;;;;;19.35;9.15;;;;;;;4.80;100.00;99957.38;2163622;82;21160;-81
2021/12/17 11:01:54;;;;;;;20.97;8.90;;;;;;;4.82;100.00;99960.68;2163415;82;20986;-82
2021/12/17 11:04:56;;;;;;;13.50;6.33;;;;;;;4.80;100.00;99961.73;2163637;82;21060;-80
2021/12/17 11:07:57;;;;;;;12.68;5.60;;;;;;;4.75;100.00;99962.06;2163451;82;21037;-81
2021/12/17 11:11:06;;;;;;;15.60;5.85;;;;;;;4.71;100.00;99969.72;2163616;82;20981;-82
2021/12/17 11:14:01;;;;;;;15.75;6.00;;;;;;;4.66;100.00;99967.09;2163412;82;21077;-82
2021/12/17 11:17:05;;;;;;;15.00;6.40;;;;;;;4.62;100.00;99969.56;2163566;82;21006;-82
2021/12/17 11:20:05;;;;;;;18.65;6.28;;;;;;;4.54;100.00;99966.22;2171940;82;21053;-82
2021/12/17 11:23:08;;;;;;;12.55;6.05;;;;;;;4.51;100.00;99963.39;2175174;82;21582;-81
2021/12/17 11:26:08;;;;;;;18.73;5.87;;;;;;;4.50;100.00;99957.84;2175096;82;21070;-82
2021/12/17 11:29:09;;;;;;;14.40;5.67;;;;;;;4.46;100.00;99958.16;2175178;82;21037;-82
2021/12/17 11:32:10;;;;;;;16.57;6.97;;;;;;;4.44;100.00;99949.20;2175371;82;20934;-82
2021/12/17 11:35:11;;;;;;;15.43;6.03;;;;;;;4.54;100.00;99950.19;2175154;82;20977;-81
2021/12/17 11:38:12;;;;;;;19.62;7.25;;;;;;;4.61;100.00;99951.88;2175208;82;20958;-82
2021/12/17 11:41:14;;;;;;;13.15;6.15;;;;;;;4.63;100.00;99947.39;2175169;82;21036;-82
2021/12/17 11:44:15;;;;;;;19.67;7.70;;;;;;;4.61;100.00;99950.58;2175149;82;20981;-81
2021/12/17 11:47:15;;;;;;;13.13;5.72;;;;;;;4.58;100.00;99948.69;2175115;82;21012;-81
2021/12/17 11:50:16;;;;;;;14.05;6.17;;;;;;;4.54;100.00;99957.97;2175167;82;21488;-81
2021/12/17 11:53:18;;;;;;;13.45;5.70;;;;;;;4.46;100.00;99955.09;2174939;82;21029;-82
2021/12/17 11:56:19;;;;;;;21.45;6.55;;;;;;;4.48;100.00;99953.25;2175088;82;21075;-82
2021/12/17 11:59:20;;;;;;;16.48;5.40;;;;;;;4.49;100.00;99948.41;2174926;82;20977;-80
2021/12/17 12:02:22;;;;;;;11.60;5.80;;;;;;;4.44;100.00;99938.83;2175160;82;21299;-79
2021/12/17 12:05:23;;;;;;;13.62;6.80;;;;;;;4.44;100.00;99934.11;2175021;82;21571;-80
2021/12/17 12:08:24;;;;;;;10.70;5.20;;;;;;;4.46;100.00;99940.00;2175185;82;20954;-79
2021/12/17 12:11:24;;;;;;;12.98;6.12;;;;;;;4.41;100.00;99946.84;2174928;82;21260;-81
2021/12/17 12:14:25;;;;;;;14.30;5.10;;;;;;;4.35;100.00;99936.89;2175124;82;21532;-79
2021/12/17 12:17:26;;;;;;;17.40;5.25;;;;;;;4.31;100.00;99953.63;2175155;82;21467;-80
2021/12/17 12:20:27;;;;;;;13.18;5.20;;;;;;;4.31;100.00;99947.61;2175054;80;21029;-80
2021/12/17 12:23:28;;;;;;;15.32;5.35;;;;;;;4.30;100.00;99944.19;2165924;82;20985;-79
2021/12/17 12:26:29;;;;;;;10.03;5.05;;;;;;;4.22;100.00;99942.14;2164922;82;21315;-79
2021/12/17 12:29:30;;;;;;;11.12;4.30;;;;;;;4.19;100.00;99949.29;2163811;82;21449;-78
2021/12/17 12:32:31;;;;;;;20.57;7.10;;;;;;;4.18;100.00;99936.80;2164062;82;21017;-79
2021/12/17 12:35:32;;;;;;;13.30;5.15;;;;;;;4.13;100.00;99940.67;2163780;82;20974;-80
2021/12/17 12:38:32;;;;;;;12.55;5.08;;;;;;;4.09;100.00;99948.28;2163622;82;21310;-80
2021/12/17 12:41:34;;;;;;;9.15;5.70;;;;;;;4.11;100.00;99941.22;2163457;82;21022;-80
2021/12/17 12:44:35;;;;;;;15.75;5.42;;;;;;;4.15;100.00;99936.20;2165624;82;21081;-80
2021/12/17 12:47:35;;;;;;;12.75;5.08;;;;;;;4.16;100.00;99929.61;2163923;82;21081;-80
2021/12/17 12:50:36;;;;;;;12.93;5.17;;;;;;;4.22;100.00;99932.24;2163724;82;21001;-80
2021/12/17 12:53:37;;;;;;;10.85;4.85;;;;;;;4.19;100.00;99922.89;2163734;82;21005;-81
2021/12/17 12:56:38;;;;;;;14.50;5.20;;;;;;;4.19;100.00;99940.22;2163639;82;20966;-80
2021/12/17 12:59:42;;;;;;;13.00;5.12;;;;;;;4.16;100.00;99923.13;2163601;82;21013;-80
2021/12/17 13:02:42;;;;;;;13.60;6.78;;;;;;;4.10;100.00;99930.50;2163243;81;21083;-81
2021/12/17 13:05:43;;;;;;;12.80;5.08;;;;;;;4.07;100.00;99933.31;2163445;82;21679;-81
2021/12/17 13:08:43;;;;;;;12.33;4.78;;;;;;;4.04;100.00;99924.47;2163796;82;21057;-81
2021/12/17 13:11:44;;;;;;;11.22;4.97;;;;;;;4.06;100.00;99918.70;2163616;82;21529;-81
2021/12/17 13:14:47;;;;;;;20.10;5.25;;;;;;;4.10;100.00;99920.13;2163772;82;21721;-81
2021/12/17 13:20:16;;;;;;;12.70;6.33;;;;;;;4.12;100.00;99923.00;2163577;82;21061;-81
2021/12/17 13:23:57;;;;;;;18.20;6.22;;;;;;;4.10;100.00;99927.91;2163671;81;21017;-81
2021/12/17 13:26:57;;;;;;;12.07;6.37;;;;;;;4.11;100.00;99921.31;2163542;82;21155;-81
2021/12/17 13:29:58;;;;;;;11.78;5.50;;;;;;;4.10;100.00;99920.13;2163652;82;21524;-81
2021/12/17 13:32:59;;;;;;;15.15;6.60;;;;;;;4.10;100.00;99930.03;2163632;82;21016;-81
2021/12/17 13:35:59;;;;;;;12.82;5.85;;;;;;;4.06;100.00;99922.59;2163625;82;20962;-81
2021/12/17 13:39:00;;;;;;;8.63;4.67;;;;;;;4.04;100.00;99927.06;2163753;82;20970;-81
2021/12/17 13:42:01;;;;;;;16.65;5.15;;;;;;;4.00;100.00;99932.45;2163793;82;21005;-81
2021/12/17 13:45:02;;;;;;;14.18;5.45;;;;;;;3.98;100.00;99908.41;2163927;82;21061;-81
2021/12/17 13:48:04;;;;;;;14.28;6.75;;;;;;;4.01;100.00;99921.61;2163787;82;21020;-82
2021/12/17 13:51:05;;;;;;;11.25;5.17;;;;;;;3.97;100.00;99922.30;2164169;82;21314;-80
2021/12/17 13:54:06;;;;;;;12.90;7.17;;;;;;;3.94;100.00;99934.66;2163727;82;20970;-80
2021/12/17 13:57:06;;;;;;;15.90;6.65;;;;;;;3.95;100.00;99922.06;2163791;82;20962;-79
2021/12/17 14:00:07;;;;;;;11.65;5.67;;;;;;;3.94;100.00;99918.64;2163805;82;21009;-80
2021/12/17 14:03:09;;;;;;;16.42;6.28;;;;;;;3.91;100.00;99927.91;2163627;82;20970;-79
2021/12/17 14:06:17;;;;;;;12.15;5.95;;;;;;;3.87;100.00;99930.37;2163672;82;21081;-79
2021/12/17 14:09:12;;;;;;;13.55;5.90;;;;;;;3.86;100.00;99923.53;2163471;82;21122;-81
2021/12/17 14:12:13;;;;;;;16.75;6.78;;;;;;;3.83;100.00;99928.91;2163836;82;21002;-79
2021/12/17 14:15:14;;;;;;;8.95;4.58;;;;;;;3.79;100.00;99937.02;2163787;82;20966;-79
2021/12/17 14:18:15;;;;;;;19.67;6.17;;;;;;;3.76;100.00;99947.13;2163784;82;21053;-79
2021/12/17 14:21:17;;;;;;;22.35;8.13;;;;;;;3.76;100.00;99923.82;2163824;82;20989;-81
2021/12/17 14:24:18;;;;;;;15.13;5.87;;;;;;;3.78;100.00;99923.70;2184898;81;21034;-80
2021/12/17 14:27:19;;;;;;;16.57;7.10;;;;;;;3.78;100.00;99936.66;2186322;81;21024;-80
2021/12/17 14:30:19;;;;;;;15.88;6.70;;;;;;;3.79;100.00;99937.02;2186276;81;20988;-80
2021/12/17 14:33:20;;;;;;;18.00;7.15;;;;;;;3.78;100.00;99949.14;2186165;81;20953;-80
2021/12/17 14:36:21;;;;;;;18.73;8.03;;;;;;;3.77;100.00;99938.89;2186202;81;20997;-80
2021/12/17 14:39:32;;;;;;;17.70;7.15;;;;;;;3.80;100.00;99945.14;2186184;81;20989;-79
2021/12/17 14:42:25;;;;;;;13.60;6.12;;;;;;;3.79;100.00;99943.49;2184115;81;21626;-81
2021/12/17 14:45:25;;;;;;;16.45;6.05;;;;;;;3.79;100.00;99923.59;2186822;81;20999;-81
2021/12/17 14:48:36;;;;;;;14.38;5.85;;;;;;;3.78;100.00;99923.23;2186363;81;20985;-84
2021/12/17 15:04:09;;;;;;;18.77;9.10;;;;;;;3.70;100.00;99940.60;2186306;81;21028;-82
2021/12/17 15:07:10;;;;;;;15.72;7.70;;;;;;;3.70;100.00;99958.73;2185963;81;20953;-82
2021/12/17 15:10:11;;;;;;;19.98;8.43;;;;;;;3.69;100.00;99967.91;2186160;81;21047;-81
2021/12/17 15:13:11;;;;;;;25.27;9.03;;;;;;;3.67;100.00;99942.59;2186210;81;20941;-82
2021/12/17 15:16:12;;;;;;;23.22;8.53;;;;;;;3.67;100.00;99955.07;2188171;81;20984;-82
2021/12/17 15:19:13;;;;;;;14.20;7.50;;;;;;;3.68;100.00;99958.02;2188765;81;21124;-83
2021/12/17 15:22:14;;;;;;;20.17;7.87;;;;;;;3.68;100.00;99948.13;2182141;81;20989;-83
2021/12/17 15:25:15;;;;;;;24.07;7.95;;;;;;;3.70;100.00;99950.14;2163613;82;21014;-84
2021/12/17 15:28:16;;;;;;;26.42;8.98;;;;;;;3.71;100.00;99965.57;2163485;82;21078;-83
2021/12/17 15:31:17;;;;;;;17.90;9.53;;;;;;;3.73;100.00;99951.21;2163801;82;21005;-82
2021/12/17 15:34:18;;;;;;;26.25;11.75;;;;;;;3.75;100.00;99951.10;2163487;82;20962;-83
2021/12/17 15:37:18;;;;;;;26.07;10.78;;;;;;;3.77;100.00;99951.38;2163689;82;21001;-85
2021/12/17 15:40:19;;;;;;;17.10;8.35;;;;;;;3.77;100.00;99942.78;2163643;82;21009;-81
2021/12/17 15:43:20;;;;;;;22.67;9.40;;;;;;;3.75;100.00;99950.66;2163684;82;20998;-82
2021/12/17 15:46:21;;;;;;;19.57;8.20;;;;;;;3.72;100.00;99956.03;2163604;82;21013;-83
2021/12/17 15:49:22;;;;;;;21.05;7.97;;;;;;;3.67;100.00;99953.78;2163618;82;20970;-85
2021/12/17 15:52:23;;;;;;;18.02;9.28;;;;;;;3.67;100.00;99962.02;2163450;82;21109;-83
2021/12/17 15:55:24;;;;;;;16.80;8.73;;;;;;;3.67;100.00;99969.32;2163735;82;21022;-82
2021/12/17 15:58:24;;;;;;;16.87;6.67;;;;;;;3.70;100.00;99958.73;2163767;82;21096;-89
2021/12/17 16:01:25;;;;;;;13.68;5.70;;;;;;;3.68;100.00;99978.75;2164391;82;21096;-84
2021/12/17 16:04:28;;;;;;;21.65;8.85;;;;;;;3.69;100.00;99956.26;2163668;82;21058;-81
2021/12/17 16:07:29;;;;;;;20.48;7.75;;;;;;;3.68;100.00;99955.43;2163794;82;21080;-79
2021/12/17 16:23:31;;;;;;;22.70;9.90;;;;;;;3.69;100.00;99959.67;2169299;82;21018;-80
2021/12/17 16:26:31;;;;;;;22.10;10.00;;;;;;;3.69;100.00;99963.56;2175315;82;20965;-81
2021/12/17 16:29:32;;;;;;;19.80;8.63;;;;;;;3.72;100.00;99968.98;2175363;82;20989;-81
2021/12/17 16:32:33;;;;;;;16.90;8.43;;;;;;;3.70;100.00;99967.80;2175180;82;21088;-80
2021/12/17 16:35:34;;;;;;;15.98;8.38;;;;;;;3.69;100.00;99965.33;2175225;82;20985;-81
2021/12/17 16:38:35;;;;;;;20.45;9.23;;;;;;;3.70;100.00;99968.27;2175323;82;21097;-79
2021/12/17 16:41:36;;;;;;;9.95;6.58;;;;;;;3.73;100.00;99962.05;2175380;82;20977;-80
2021/12/17 16:44:46;;;;;;;12.98;7.33;;;;;;;3.71;100.00;99958.27;2175104;82;21062;-81
2021/12/17 16:47:40;;;;;;;14.23;6.45;;;;;;;3.74;100.00;99963.70;2173336;82;20997;-83
2021/12/17 16:50:41;;;;;;;20.70;9.68;;;;;;;3.75;100.00;99961.03;2175049;82;21599;-80
2021/12/17 16:53:43;;;;;;;28.12;12.05;;;;;;;3.73;100.00;99965.46;2174872;82;21025;-80
2021/12/17 16:56:44;;;;;;;20.85;9.75;;;;;;;3.73;100.00;99970.64;2174995;82;21046;-80
2021/12/17 16:59:45;;;;;;;17.30;9.43;;;;;;;3.76;100.00;99981.28;2175214;82;21008;-83
2021/12/17 17:02:46;;;;;;;16.87;8.48;;;;;;;3.74;100.00;99973.59;2175143;82;21004;-79
2021/12/17 17:05:47;;;;;;;16.70;9.40;;;;;;;3.73;100.00;99968.52;2175297;82;20949;-81